Time;durP1;ratioP1;P1;durP2;ratioP2;P2;SDS_P1;SDS_P2;PMS_P1;PMS_P2;Temp;Humidity;BMP_temperature;BMP_pressure;BME280_temperature;BME280_humidity;BME280_pressure;Samples;Min_cycle;Max_cycle;Signal;HPM_P1;HPM_P2
2022/02/21 00:00:49;;;;;;;6.53;3.03;;;;;;;;;;5056810;28;20438;-87
2022/02/21 00:03:20;;;;;;;5.68;3.45;;;;;;;;;;5037934;28;20082;-87
2022/02/21 00:05:46;;;;;;;5.70;3.20;;;;;;;;;;5038774;28;20057;-87
2022/02/21 00:08:12;;;;;;;6.65;3.08;;;;;;;;;;5038528;28;20083;-86
2022/02/21 00:10:38;;;;;;;6.10;2.83;;;;;;;;;;5038194;28;20485;-86
2022/02/21 00:13:04;;;;;;;5.78;3.08;;;;;;;;;;5038355;28;20025;-86
2022/02/21 00:15:30;;;;;;;6.50;3.70;;;;;;;;;;5037260;28;20025;-87
2022/02/21 00:17:58;;;;;;;6.10;3.05;;;;;;;;;;5055936;28;20120;-87
2022/02/21 00:20:25;;;;;;;6.35;3.58;;;;;;;;;;5055651;28;20408;-87
2022/02/21 00:22:51;;;;;;;7.95;3.97;;;;;;;;;;5057031;28;20336;-86
2022/02/21 00:25:17;;;;;;;6.85;3.42;;;;;;;;;;5054649;28;20500;-84
2022/02/21 00:27:46;;;;;;;6.97;2.80;;;;;;;;;;5037290;28;20464;-87
2022/02/21 00:30:12;;;;;;;6.22;2.80;;;;;;;;;;5055342;28;20067;-87
2022/02/21 00:32:38;;;;;;;4.35;2.17;;;;;;;;;;5054976;28;20021;-87
2022/02/21 00:35:04;;;;;;;5.32;2.80;;;;;;;;;;5038647;28;20052;-86
2022/02/21 00:37:31;;;;;;;4.18;1.75;;;;;;;;;;5054046;28;20494;-85
2022/02/21 00:39:57;;;;;;;2.65;1.17;;;;;;;;;;5044383;28;20102;-86
2022/02/21 00:42:24;;;;;;;3.30;0.98;;;;;;;;;;5056461;28;20527;-87
2022/02/21 00:44:55;;;;;;;1.88;0.75;;;;;;;;;;5054650;28;20029;-85
2022/02/21 00:47:21;;;;;;;2.53;0.82;;;;;;;;;;5056221;28;20076;-85
2022/02/21 00:49:47;;;;;;;1.83;0.68;;;;;;;;;;5040280;28;20128;-86
2022/02/21 00:52:13;;;;;;;2.63;0.80;;;;;;;;;;5060414;28;20133;-85
2022/02/21 00:54:40;;;;;;;2.90;0.80;;;;;;;;;;5040574;28;20033;-85
2022/02/21 00:57:06;;;;;;;1.77;0.60;;;;;;;;;;5041658;28;20021;-84
2022/02/21 00:59:32;;;;;;;1.55;0.60;;;;;;;;;;5049004;28;20036;-85
2022/02/21 01:01:58;;;;;;;1.58;0.50;;;;;;;;;;5048565;28;20029;-86
2022/02/21 01:04:24;;;;;;;0.95;0.50;;;;;;;;;;5058617;28;20033;-86
2022/02/21 01:06:50;;;;;;;1.98;0.68;;;;;;;;;;5041135;28;20036;-87
2022/02/21 01:09:16;;;;;;;1.88;0.70;;;;;;;;;;5058557;28;20029;-87
2022/02/21 01:11:42;;;;;;;1.65;0.57;;;;;;;;;;5058607;28;20086;-87
2022/02/21 01:14:08;;;;;;;1.90;0.60;;;;;;;;;;5040236;28;20029;-84
2022/02/21 01:16:34;;;;;;;1.77;0.60;;;;;;;;;;5041293;28;20485;-86
2022/02/21 01:19:01;;;;;;;1.17;0.50;;;;;;;;;;5057536;28;20088;-85
2022/02/21 01:21:27;;;;;;;1.70;0.70;;;;;;;;;;5058381;28;20429;-85
2022/02/21 01:23:53;;;;;;;5.28;2.50;;;;;;;;;;5059709;28;20029;-86
2022/02/21 01:26:19;;;;;;;5.13;3.17;;;;;;;;;;5040139;28;20033;-87
2022/02/21 01:28:45;;;;;;;4.88;2.63;;;;;;;;;;5038004;28;20489;-85
2022/02/21 01:31:12;;;;;;;5.60;2.95;;;;;;;;;;5029966;28;20028;-85
2022/02/21 01:33:38;;;;;;;5.20;2.78;;;;;;;;;;5052048;28;20029;-85
2022/02/21 01:36:04;;;;;;;5.70;3.30;;;;;;;;;;5044794;28;20412;-85
2022/02/21 01:38:30;;;;;;;6.53;3.00;;;;;;;;;;5040011;28;20395;-86
2022/02/21 01:40:56;;;;;;;6.30;2.97;;;;;;;;;;5041841;28;20025;-84
2022/02/21 01:43:22;;;;;;;5.93;3.03;;;;;;;;;;5055653;28;20435;-86
2022/02/21 01:45:48;;;;;;;6.50;2.75;;;;;;;;;;5060591;28;20021;-86
2022/02/21 01:48:14;;;;;;;5.82;3.13;;;;;;;;;;5056269;28;20052;-85
2022/02/21 01:50:40;;;;;;;5.57;3.20;;;;;;;;;;5039040;28;20547;-87
2022/02/21 01:53:06;;;;;;;6.13;2.90;;;;;;;;;;5041538;28;20033;-87
2022/02/21 01:55:32;;;;;;;5.78;2.60;;;;;;;;;;5058373;28;20029;-88
2022/02/21 01:57:58;;;;;;;5.15;2.85;;;;;;;;;;5040162;28;20033;-87
2022/02/21 02:00:24;;;;;;;5.25;2.72;;;;;;;;;;5057465;28;20171;-87
2022/02/21 02:02:50;;;;;;;4.82;2.42;;;;;;;;;;5040509;28;20049;-86
2022/02/21 02:05:17;;;;;;;4.40;2.17;;;;;;;;;;5040930;28;20025;-87
2022/02/21 02:07:43;;;;;;;5.57;2.80;;;;;;;;;;5040009;28;20484;-87
2022/02/21 02:10:10;;;;;;;4.90;2.47;;;;;;;;;;5041606;28;20116;-86
2022/02/21 02:12:36;;;;;;;5.72;2.50;;;;;;;;;;5057322;28;20439;-86
2022/02/21 02:15:02;;;;;;;4.70;1.52;;;;;;;;;;5039564;28;20134;-85
2022/02/21 02:17:28;;;;;;;3.78;1.50;;;;;;;;;;5059576;28;20017;-85
2022/02/21 02:19:54;;;;;;;4.43;1.58;;;;;;;;;;5057717;28;20104;-87
2022/02/21 02:22:22;;;;;;;4.95;1.65;;;;;;;;;;5040572;28;20036;-86
2022/02/21 02:24:49;;;;;;;3.78;1.30;;;;;;;;;;5058240;28;20017;-86
2022/02/21 02:27:15;;;;;;;3.42;1.40;;;;;;;;;;5054912;28;20053;-87
2022/02/21 02:29:42;;;;;;;2.97;1.30;;;;;;;;;;5056011;28;20512;-87
2022/02/21 02:32:09;;;;;;;4.20;2.15;;;;;;;;;;5038173;28;20049;-86
2022/02/21 02:34:37;;;;;;;3.10;1.25;;;;;;;;;;5034352;28;20021;-87
2022/02/21 02:37:03;;;;;;;3.53;1.10;;;;;;;;;;5035636;28;20022;-87
2022/02/21 02:39:29;;;;;;;3.72;1.38;;;;;;;;;;5034713;28;20033;-87
2022/02/21 02:41:56;;;;;;;3.15;1.45;;;;;;;;;;5035968;28;20033;-86
2022/02/21 02:44:22;;;;;;;3.35;1.30;;;;;;;;;;5037454;28;20037;-86
2022/02/21 02:46:48;;;;;;;2.97;1.10;;;;;;;;;;5035991;28;20047;-86
2022/02/21 02:49:14;;;;;;;2.78;1.13;;;;;;;;;;5035550;28;20025;-86
2022/02/21 02:51:40;;;;;;;3.47;1.27;;;;;;;;;;5035817;28;20029;-86
2022/02/21 02:54:07;;;;;;;2.92;1.05;;;;;;;;;;5033793;28;20044;-85
2022/02/21 02:56:34;;;;;;;3.80;1.73;;;;;;;;;;5037102;28;20446;-86
2022/02/21 02:59:00;;;;;;;3.08;1.10;;;;;;;;;;5036586;28;20056;-86
2022/02/21 03:01:27;;;;;;;2.67;1.20;;;;;;;;;;5035887;28;20026;-86
2022/02/21 03:03:53;;;;;;;2.97;1.20;;;;;;;;;;5034898;28;20017;-86
2022/02/21 03:06:19;;;;;;;3.97;1.17;;;;;;;;;;5037408;28;20032;-87
2022/02/21 03:08:45;;;;;;;3.05;1.20;;;;;;;;;;5033135;28;20405;-87
2022/02/21 03:11:11;;;;;;;4.38;1.20;;;;;;;;;;5036169;28;20485;-87
2022/02/21 03:13:37;;;;;;;3.05;1.00;;;;;;;;;;5034375;28;20112;-87
2022/02/21 03:16:03;;;;;;;3.20;1.15;;;;;;;;;;5034164;28;20111;-86
2022/02/21 03:18:29;;;;;;;3.03;0.90;;;;;;;;;;5024409;28;20093;-86
2022/02/21 03:20:55;;;;;;;2.97;1.00;;;;;;;;;;5028603;28;20351;-86
2022/02/21 03:23:23;;;;;;;3.45;1.00;;;;;;;;;;5025180;28;20038;-87
2022/02/21 03:25:49;;;;;;;3.42;1.45;;;;;;;;;;5031531;28;20036;-87
2022/02/21 03:28:15;;;;;;;2.83;1.02;;;;;;;;;;5035210;28;20505;-86
2022/02/21 03:30:41;;;;;;;4.72;2.40;;;;;;;;;;5033390;28;20485;-87
2022/02/21 03:33:08;;;;;;;6.05;3.10;;;;;;;;;;5027340;28;20531;-87
2022/02/21 03:35:34;;;;;;;5.40;2.90;;;;;;;;;;5037091;28;20076;-86
2022/02/21 03:38:00;;;;;;;4.97;2.45;;;;;;;;;;5041006;28;20478;-85
2022/02/21 03:40:26;;;;;;;4.93;2.50;;;;;;;;;;5037585;28;20040;-85
2022/02/21 03:42:52;;;;;;;6.80;3.55;;;;;;;;;;5039185;28;20079;-87
2022/02/21 03:45:25;;;;;;;5.85;3.03;;;;;;;;;;5035224;28;20386;-87
2022/02/21 03:47:51;;;;;;;7.18;3.13;;;;;;;;;;5034271;28;20485;-86
2022/02/21 03:50:17;;;;;;;6.00;3.25;;;;;;;;;;5037480;28;20465;-87
2022/02/21 03:52:43;;;;;;;7.70;3.28;;;;;;;;;;5035880;28;21751;-87
2022/02/21 03:55:10;;;;;;;8.70;3.90;;;;;;;;;;5033611;28;20116;-87
2022/02/21 03:57:36;;;;;;;7.60;3.70;;;;;;;;;;5035350;28;20026;-87
2022/02/21 04:00:03;;;;;;;7.47;3.78;;;;;;;;;;5037969;28;20034;-86
2022/02/21 04:02:29;;;;;;;6.80;3.05;;;;;;;;;;5035196;28;20034;-83
2022/02/21 04:04:57;;;;;;;6.35;3.20;;;;;;;;;;5036734;28;20039;-84
2022/02/21 04:07:23;;;;;;;6.47;3.25;;;;;;;;;;5037575;28;20045;-85
2022/02/21 04:09:49;;;;;;;6.13;2.65;;;;;;;;;;5037274;28;20060;-87
2022/02/21 04:12:15;;;;;;;6.65;3.20;;;;;;;;;;5031054;28;20033;-86
2022/02/21 04:14:41;;;;;;;5.50;3.03;;;;;;;;;;5030234;28;20044;-86
2022/02/21 04:17:07;;;;;;;5.07;2.72;;;;;;;;;;5038434;28;20021;-87
2022/02/21 04:19:33;;;;;;;7.10;3.03;;;;;;;;;;5035965;28;20096;-84
2022/02/21 04:21:59;;;;;;;5.45;2.65;;;;;;;;;;5046261;28;20059;-84
2022/02/21 04:24:26;;;;;;;4.60;2.33;;;;;;;;;;5047734;28;20037;-83
2022/02/21 04:26:52;;;;;;;5.97;2.90;;;;;;;;;;5044887;28;20057;-83
2022/02/21 04:29:18;;;;;;;5.50;2.95;;;;;;;;;;5040246;28;20078;-85
2022/02/21 04:31:44;;;;;;;6.72;3.55;;;;;;;;;;5035601;28;20029;-84
2022/02/21 04:34:10;;;;;;;6.88;3.55;;;;;;;;;;5037790;28;20517;-85
2022/02/21 04:36:38;;;;;;;6.78;3.53;;;;;;;;;;5039229;28;20131;-87
2022/02/21 04:39:04;;;;;;;7.50;3.80;;;;;;;;;;5038827;28;20380;-86
2022/02/21 04:41:31;;;;;;;6.32;3.88;;;;;;;;;;5042309;28;20120;-85
2022/02/21 04:43:57;;;;;;;6.72;3.80;;;;;;;;;;5039701;28;20029;-87
2022/02/21 04:46:23;;;;;;;6.70;3.83;;;;;;;;;;5056289;28;20472;-86
2022/02/21 04:48:49;;;;;;;8.18;4.50;;;;;;;;;;5056348;28;20075;-85
2022/02/21 04:51:15;;;;;;;8.48;4.32;;;;;;;;;;5043685;28;20033;-85
2022/02/21 04:53:41;;;;;;;6.88;3.80;;;;;;;;;;5058661;28;20020;-85
2022/02/21 04:56:07;;;;;;;7.50;4.30;;;;;;;;;;5047736;28;20013;-84
2022/02/21 04:58:33;;;;;;;9.10;4.32;;;;;;;;;;5069413;28;20036;-85
2022/02/21 05:00:59;;;;;;;8.75;4.22;;;;;;;;;;5074543;28;20021;-85
2022/02/21 05:03:25;;;;;;;7.85;4.15;;;;;;;;;;5053323;28;20017;-87
2022/02/21 05:05:51;;;;;;;7.82;4.60;;;;;;;;;;5046044;28;20088;-87
2022/02/21 05:08:17;;;;;;;8.07;4.75;;;;;;;;;;5060181;28;20056;-86
2022/02/21 05:10:43;;;;;;;8.10;4.57;;;;;;;;;;5044510;28;20025;-85
2022/02/21 05:13:09;;;;;;;7.15;3.88;;;;;;;;;;5061201;28;20028;-86
2022/02/21 05:15:35;;;;;;;7.32;4.78;;;;;;;;;;5056503;28;20045;-85
2022/02/21 05:18:01;;;;;;;6.70;4.40;;;;;;;;;;5039695;28;20555;-86
2022/02/21 05:20:27;;;;;;;11.77;5.57;;;;;;;;;;5058541;28;20097;-87
2022/02/21 05:22:53;;;;;;;8.57;4.80;;;;;;;;;;5036434;28;20423;-86
2022/02/21 05:25:19;;;;;;;7.45;4.47;;;;;;;;;;5037796;28;20033;-87
2022/02/21 05:27:45;;;;;;;7.25;4.70;;;;;;;;;;5039137;28;20502;-87
2022/02/21 05:30:13;;;;;;;6.85;4.25;;;;;;;;;;5054236;28;20028;-86
2022/02/21 05:32:39;;;;;;;12.40;5.97;;;;;;;;;;5035403;28;20082;-87
2022/02/21 05:35:06;;;;;;;7.38;4.38;;;;;;;;;;5052543;28;20077;-87
2022/02/21 05:37:32;;;;;;;9.48;4.50;;;;;;;;;;5037678;28;20017;-86
2022/02/21 05:39:58;;;;;;;16.35;6.05;;;;;;;;;;5037751;28;20021;-87
2022/02/21 05:42:24;;;;;;;10.68;5.53;;;;;;;;;;5037302;28;20357;-86
2022/02/21 05:44:50;;;;;;;8.32;5.25;;;;;;;;;;5040016;28;20147;-86
2022/02/21 05:47:16;;;;;;;12.00;5.22;;;;;;;;;;5055398;28;20040;-86
2022/02/21 05:49:42;;;;;;;9.35;5.03;;;;;;;;;;5038043;28;20025;-86
2022/02/21 05:52:08;;;;;;;10.88;5.10;;;;;;;;;;5037541;28;20028;-87
2022/02/21 05:54:34;;;;;;;10.43;6.20;;;;;;;;;;5054726;28;20031;-87
2022/02/21 05:57:00;;;;;;;8.27;5.00;;;;;;;;;;5038340;28;20029;-86
2022/02/21 05:59:27;;;;;;;8.90;5.10;;;;;;;;;;5056563;28;20025;-86
2022/02/21 06:01:53;;;;;;;12.07;5.35;;;;;;;;;;5035198;28;20029;-87
2022/02/21 06:04:19;;;;;;;11.23;6.15;;;;;;;;;;5036964;28;20543;-86
2022/02/21 06:06:45;;;;;;;9.75;5.97;;;;;;;;;;5056557;28;20029;-86
2022/02/21 06:09:11;;;;;;;9.27;5.65;;;;;;;;;;5037163;28;20124;-86
2022/02/21 06:11:38;;;;;;;9.05;5.63;;;;;;;;;;5056154;28;20029;-87
2022/02/21 06:14:04;;;;;;;9.00;5.50;;;;;;;;;;5055251;28;20488;-86
2022/02/21 06:16:30;;;;;;;9.68;5.22;;;;;;;;;;5055327;28;20485;-84
2022/02/21 06:18:57;;;;;;;10.57;5.13;;;;;;;;;;5041033;28;20033;-86
2022/02/21 06:21:24;;;;;;;10.80;5.68;;;;;;;;;;5059232;28;20135;-86
2022/02/21 06:23:50;;;;;;;9.85;5.90;;;;;;;;;;5041389;28;20512;-86
2022/02/21 06:26:16;;;;;;;9.27;5.55;;;;;;;;;;5059176;28;20029;-85
2022/02/21 06:28:42;;;;;;;10.52;5.72;;;;;;;;;;5059363;28;20092;-86
2022/02/21 06:31:08;;;;;;;10.02;6.47;;;;;;;;;;5058080;28;20025;-85
2022/02/21 06:33:35;;;;;;;11.95;7.60;;;;;;;;;;5038190;28;20025;-85
2022/02/21 06:36:01;;;;;;;11.88;6.25;;;;;;;;;;5040524;28;20052;-85
2022/02/21 06:38:27;;;;;;;10.30;6.85;;;;;;;;;;5031950;28;20037;-85
2022/02/21 06:40:53;;;;;;;11.18;7.25;;;;;;;;;;5057491;28;20044;-85
2022/02/21 06:43:19;;;;;;;13.73;7.28;;;;;;;;;;5060197;28;20029;-87
2022/02/21 06:45:45;;;;;;;10.10;6.75;;;;;;;;;;5039459;28;20036;-86
2022/02/21 06:48:11;;;;;;;10.90;7.25;;;;;;;;;;5057734;28;20119;-87
2022/02/21 06:50:37;;;;;;;10.27;7.43;;;;;;;;;;5058304;28;20059;-86
2022/02/21 06:53:03;;;;;;;14.55;7.25;;;;;;;;;;5040641;28;20480;-87
2022/02/21 06:55:29;;;;;;;15.48;7.70;;;;;;;;;;5055939;28;20104;-86
2022/02/21 06:57:55;;;;;;;11.70;7.15;;;;;;;;;;5060052;28;20052;-86
2022/02/21 07:00:23;;;;;;;11.65;6.85;;;;;;;;;;5039214;28;20059;-86
2022/02/21 07:02:49;;;;;;;13.20;8.02;;;;;;;;;;5056561;28;20024;-86
2022/02/21 07:05:15;;;;;;;11.30;7.32;;;;;;;;;;5039532;28;20021;-85
2022/02/21 07:07:42;;;;;;;12.07;7.22;;;;;;;;;;5038953;28;20092;-87
2022/02/21 07:10:09;;;;;;;13.80;7.70;;;;;;;;;;5037990;28;20029;-86
2022/02/21 07:12:35;;;;;;;15.90;8.10;;;;;;;;;;5038097;28;20064;-86
2022/02/21 07:15:01;;;;;;;14.80;8.20;;;;;;;;;;5055521;28;20048;-86
2022/02/21 07:17:27;;;;;;;14.13;7.90;;;;;;;;;;5054095;28;20020;-87
2022/02/21 07:19:55;;;;;;;12.50;7.30;;;;;;;;;;5036739;28;20480;-87
2022/02/21 07:22:21;;;;;;;11.18;6.68;;;;;;;;;;5054179;28;20080;-87
2022/02/21 07:24:47;;;;;;;13.50;7.65;;;;;;;;;;5053526;28;20029;-87
2022/02/21 07:27:13;;;;;;;11.27;7.85;;;;;;;;;;5036888;28;20032;-85
2022/02/21 07:29:39;;;;;;;10.65;6.97;;;;;;;;;;5040286;28;20485;-86
2022/02/21 07:32:06;;;;;;;12.85;7.65;;;;;;;;;;5056303;28;20023;-83
2022/02/21 07:34:32;;;;;;;11.05;6.72;;;;;;;;;;5042367;28;20028;-84
2022/02/21 07:36:58;;;;;;;12.77;7.90;;;;;;;;;;5061249;28;20103;-86
2022/02/21 07:39:24;;;;;;;10.65;7.30;;;;;;;;;;5040966;28;20029;-86
2022/02/21 07:41:50;;;;;;;13.18;7.28;;;;;;;;;;5058254;28;20040;-84
2022/02/21 07:44:16;;;;;;;12.13;7.72;;;;;;;;;;5059970;28;20036;-85
2022/02/21 07:46:43;;;;;;;17.65;7.82;;;;;;;;;;5060034;28;20029;-85
2022/02/21 07:49:09;;;;;;;16.50;7.60;;;;;;;;;;5059187;28;20033;-84
2022/02/21 07:51:35;;;;;;;18.13;8.63;;;;;;;;;;5056979;28;20025;-86
2022/02/21 07:54:01;;;;;;;18.75;10.10;;;;;;;;;;5042669;28;20160;-86
2022/02/21 07:56:27;;;;;;;15.20;9.32;;;;;;;;;;5052666;28;20025;-86
2022/02/21 07:58:53;;;;;;;13.80;7.90;;;;;;;;;;5056746;28;20029;-86
2022/02/21 08:01:19;;;;;;;12.80;7.00;;;;;;;;;;5059349;28;20435;-85
2022/02/21 08:03:45;;;;;;;11.88;7.55;;;;;;;;;;5061979;28;20021;-86
2022/02/21 08:06:11;;;;;;;14.48;7.70;;;;;;;;;;5057928;28;20025;-86
2022/02/21 08:08:38;;;;;;;13.25;8.02;;;;;;;;;;5058014;28;20017;-87
2022/02/21 08:11:05;;;;;;;11.70;7.63;;;;;;;;;;5059122;28;20013;-86
2022/02/21 08:13:31;;;;;;;11.88;8.07;;;;;;;;;;5041966;28;20025;-87
2022/02/21 08:15:57;;;;;;;12.35;7.10;;;;;;;;;;5042690;28;20028;-86
2022/02/21 08:18:24;;;;;;;9.57;6.97;;;;;;;;;;5063499;28;20029;-87
2022/02/21 08:20:50;;;;;;;14.60;7.30;;;;;;;;;;5042737;28;20124;-86
2022/02/21 08:23:16;;;;;;;11.05;6.60;;;;;;;;;;5042762;28;20053;-86
2022/02/21 08:25:42;;;;;;;12.82;7.93;;;;;;;;;;5057841;28;20025;-87
2022/02/21 08:28:08;;;;;;;10.38;6.75;;;;;;;;;;5039168;28;20033;-87
2022/02/21 08:30:35;;;;;;;13.63;8.25;;;;;;;;;;5039702;28;20060;-87
2022/02/21 08:33:00;;;;;;;10.77;7.80;;;;;;;;;;5053756;28;20025;-87
2022/02/21 08:35:30;;;;;;;12.57;7.68;;;;;;;;;;5053580;28;20048;-86
2022/02/21 08:37:58;;;;;;;11.18;8.48;;;;;;;;;;5036687;28;20115;-87
2022/02/21 08:40:24;;;;;;;12.63;7.30;;;;;;;;;;5055265;28;20048;-87
2022/02/21 08:42:50;;;;;;;10.90;7.38;;;;;;;;;;5057187;28;20064;-87
2022/02/21 08:45:16;;;;;;;10.25;6.75;;;;;;;;;;5055084;28;20025;-86
2022/02/21 08:47:45;;;;;;;10.57;6.88;;;;;;;;;;5056326;28;20029;-87
2022/02/21 08:50:11;;;;;;;11.75;7.00;;;;;;;;;;5036998;28;20484;-86
2022/02/21 08:52:41;;;;;;;12.38;7.63;;;;;;;;;;5053832;28;20032;-87
2022/02/21 08:55:09;;;;;;;11.93;7.85;;;;;;;;;;5054736;28;20393;-87
2022/02/21 08:57:37;;;;;;;12.30;6.65;;;;;;;;;;5054577;28;20396;-87
2022/02/21 09:00:04;;;;;;;10.30;6.95;;;;;;;;;;5035971;28;20153;-87
2022/02/21 09:02:32;;;;;;;23.33;9.75;;;;;;;;;;5034228;28;20479;-87
2022/02/21 09:04:58;;;;;;;11.13;7.00;;;;;;;;;;5034077;28;20021;-87
2022/02/21 09:07:24;;;;;;;8.30;5.47;;;;;;;;;;5055320;28;20048;-86
2022/02/21 09:09:50;;;;;;;8.63;5.10;;;;;;;;;;5039406;28;20037;-87
2022/02/21 09:12:16;;;;;;;6.57;3.55;;;;;;;;;;5059219;28;20396;-87
2022/02/21 09:14:47;;;;;;;17.63;7.82;;;;;;;;;;5040995;28;20028;-86
2022/02/21 09:17:14;;;;;;;11.70;6.78;;;;;;;;;;5039129;28;20017;-86
2022/02/21 09:19:40;;;;;;;5.95;2.03;;;;;;;;;;5040964;28;20025;-84
2022/02/21 09:22:06;;;;;;;2.88;0.60;;;;;;;;;;5042802;28;20124;-83
2022/02/21 09:24:32;;;;;;;2.50;0.50;;;;;;;;;;5054600;28;20057;-84
2022/02/21 09:26:58;;;;;;;1.75;0.47;;;;;;;;;;5059415;28;20078;-85
2022/02/21 09:29:24;;;;;;;1.83;0.60;;;;;;;;;;5057990;28;20029;-86
2022/02/21 09:31:53;;;;;;;2.58;0.70;;;;;;;;;;5041355;28;20392;-83
2022/02/21 09:34:19;;;;;;;2.72;0.47;;;;;;;;;;5058034;28;20033;-87
2022/02/21 09:36:45;;;;;;;2.72;0.60;;;;;;;;;;5058125;28;20124;-87
2022/02/21 09:39:11;;;;;;;2.83;0.70;;;;;;;;;;5057645;28;20127;-86
2022/02/21 09:41:37;;;;;;;1.75;0.70;;;;;;;;;;5040521;28;20048;-85
2022/02/21 09:44:03;;;;;;;1.50;0.50;;;;;;;;;;5057802;28;20033;-86
2022/02/21 09:46:31;;;;;;;2.15;0.70;;;;;;;;;;5060140;28;20024;-85
2022/02/21 09:48:58;;;;;;;3.25;0.80;;;;;;;;;;5059105;28;20488;-87
2022/02/21 09:51:24;;;;;;;3.40;1.10;;;;;;;;;;5037507;28;20025;-86
2022/02/21 09:53:50;;;;;;;2.08;0.60;;;;;;;;;;5021376;28;20052;-83
2022/02/21 09:56:16;;;;;;;1.92;0.60;;;;;;;;;;5039938;28;20033;-84
2022/02/21 09:58:42;;;;;;;1.63;0.50;;;;;;;;;;5032010;28;20060;-83
2022/02/21 10:01:08;;;;;;;2.45;0.60;;;;;;;;;;5056157;28;20092;-85
2022/02/21 10:03:37;;;;;;;1.10;0.50;;;;;;;;;;5058232;28;20028;-85
2022/02/21 10:06:22;;;;;;;5.18;0.70;;;;;;;;;;5055375;28;20024;-82
2022/02/21 10:08:54;;;;;;;1.77;0.77;;;;;;;;;;5054225;28;20055;-85
2022/02/21 10:11:24;;;;;;;1.83;0.60;;;;;;;;;;5056226;28;20021;-83
2022/02/21 10:13:53;;;;;;;2.10;0.50;;;;;;;;;;5057231;28;20040;-83
2022/02/21 10:16:19;;;;;;;3.53;0.70;;;;;;;;;;5058171;28;20025;-84
2022/02/21 10:18:45;;;;;;;4.50;0.95;;;;;;;;;;5058857;28;20039;-85
2022/02/21 10:21:11;;;;;;;2.42;0.88;;;;;;;;;;5056578;28;20025;-83
2022/02/21 10:23:43;;;;;;;2.90;0.90;;;;;;;;;;5057860;28;20033;-86
2022/02/21 10:26:09;;;;;;;4.28;1.00;;;;;;;;;;5041660;28;20501;-82
2022/02/21 10:28:39;;;;;;;2.58;0.65;;;;;;;;;;5058287;28;20519;-82
2022/02/21 10:31:16;;;;;;;3.67;0.90;;;;;;;;;;5040709;28;20045;-83
2022/02/21 10:33:59;;;;;;;2.60;1.00;;;;;;;;;;5054632;28;20024;-83
2022/02/21 10:36:25;;;;;;;;;;;;;;;;;;5033981;28;20037;-83
2022/02/21 10:38:52;;;;;;;3.42;1.05;;;;;;;;;;5037105;28;20339;-82
2022/02/21 10:41:21;;;;;;;2.38;0.88;;;;;;;;;;5037841;28;20040;-87
2022/02/21 10:43:47;;;;;;;2.53;1.00;;;;;;;;;;5051613;28;20028;-86
2022/02/21 10:46:13;;;;;;;4.15;1.42;;;;;;;;;;5039189;28;20078;-85
2022/02/21 10:48:43;;;;;;;4.13;2.00;;;;;;;;;;5055753;28;20461;-84
2022/02/21 10:51:10;;;;;;;3.83;1.10;;;;;;;;;;5055692;28;20080;-86
2022/02/21 10:53:40;;;;;;;2.22;0.90;;;;;;;;;;5037503;28;20024;-86
2022/02/21 10:56:06;;;;;;;4.32;1.65;;;;;;;;;;5036004;28;20021;-86
2022/02/21 10:58:32;;;;;;;7.82;3.08;;;;;;;;;;5036767;28;20091;-87
2022/02/21 11:01:00;;;;;;;7.28;3.25;;;;;;;;;;5055532;28;20059;-84
2022/02/21 11:03:27;;;;;;;4.93;2.00;;;;;;;;;;5051826;28;20071;-86
2022/02/21 11:05:55;;;;;;;4.00;1.15;;;;;;;;;;5034295;28;20373;-85
2022/02/21 11:08:22;;;;;;;2.05;0.88;;;;;;;;;;5036164;28;20025;-84
2022/02/21 11:10:49;;;;;;;3.33;1.20;;;;;;;;;;5057039;28;20025;-85
2022/02/21 11:13:16;;;;;;;4.28;0.90;;;;;;;;;;5054069;28;20021;-86
2022/02/21 11:15:43;;;;;;;2.28;1.23;;;;;;;;;;5038331;28;20449;-82
2022/02/21 11:18:09;;;;;;;2.72;0.73;;;;;;;;;;5055365;28;20032;-87
2022/02/21 11:20:36;;;;;;;4.35;0.80;;;;;;;;;;5055357;28;20029;-87
2022/02/21 11:23:02;;;;;;;2.85;1.02;;;;;;;;;;5037636;28;20032;-85
2022/02/21 11:25:40;;;;;;;2.30;0.80;;;;;;;;;;5055977;28;20037;-86
2022/02/21 11:28:14;;;;;;;3.08;1.02;;;;;;;;;;5057213;28;20037;-85
2022/02/21 11:30:42;;;;;;;1.83;0.60;;;;;;;;;;5054518;28;20028;-84
2022/02/21 11:33:10;;;;;;;1.88;0.70;;;;;;;;;;5057708;28;20036;-86
2022/02/21 11:35:37;;;;;;;1.92;0.80;;;;;;;;;;5043858;28;20116;-84
2022/02/21 11:38:18;;;;;;;1.55;0.55;;;;;;;;;;5056304;28;20074;-84
2022/02/21 11:41:03;;;;;;;4.13;1.02;;;;;;;;;;5037286;28;20135;-85
2022/02/21 11:43:35;;;;;;;3.67;1.27;;;;;;;;;;5033801;28;20562;-84
2022/02/21 11:46:03;;;;;;;3.25;0.80;;;;;;;;;;5038283;28;20033;-84
2022/02/21 11:48:49;;;;;;;3.15;0.70;;;;;;;;;;5044740;28;20029;-86
2022/02/21 11:51:45;;;;;;;1.27;0.50;;;;;;;;;;5033516;28;20025;-83
2022/02/21 11:54:14;;;;;;;1.60;0.60;;;;;;;;;;5040018;28;20040;-86
2022/02/21 11:56:49;;;;;;;2.13;0.60;;;;;;;;;;5057549;28;20040;-85
2022/02/21 11:59:28;;;;;;;1.73;0.68;;;;;;;;;;5056059;28;20108;-83
2022/02/21 12:02:00;;;;;;;3.50;0.90;;;;;;;;;;5040613;28;20025;-82
2022/02/21 12:04:26;;;;;;;2.15;0.70;;;;;;;;;;5057714;28;20055;-86
2022/02/21 12:06:58;;;;;;;4.50;0.75;;;;;;;;;;5066831;28;20036;-84
2022/02/21 12:09:24;;;;;;;2.05;0.60;;;;;;;;;;5068616;28;20032;-83
2022/02/21 12:11:51;;;;;;;2.83;1.08;;;;;;;;;;5072526;28;20069;-86
2022/02/21 12:14:18;;;;;;;2.63;0.80;;;;;;;;;;5046572;28;20037;-82
2022/02/21 12:17:00;;;;;;;2.35;0.68;;;;;;;;;;5056287;28;20110;-85
2022/02/21 12:19:29;;;;;;;4.28;1.00;;;;;;;;;;5057027;28;20029;-83
2022/02/21 12:22:22;;;;;;;3.15;0.90;;;;;;;;;;5056145;28;20036;-83
2022/02/21 12:25:06;;;;;;;2.75;0.93;;;;;;;;;;5033957;28;20032;-84
2022/02/21 12:27:32;;;;;;;3.67;1.00;;;;;;;;;;5055836;28;20052;-84
2022/02/21 12:29:58;;;;;;;3.63;0.88;;;;;;;;;;5038984;28;20032;-82
2022/02/21 12:32:28;;;;;;;1.90;0.60;;;;;;;;;;5055502;28;20021;-84
2022/02/21 12:34:56;;;;;;;3.42;0.90;;;;;;;;;;5038333;28;20172;-82
2022/02/21 12:37:22;;;;;;;5.20;0.90;;;;;;;;;;5055542;28;20025;-83
2022/02/21 12:39:48;;;;;;;3.97;1.00;;;;;;;;;;5055643;28;20039;-84
2022/02/21 12:42:16;;;;;;;4.07;0.80;;;;;;;;;;5036253;28;20017;-85
2022/02/21 12:44:42;;;;;;;3.30;1.00;;;;;;;;;;5057854;28;20057;-82
2022/02/21 12:47:08;;;;;;;2.35;0.70;;;;;;;;;;5059258;28;20039;-82
2022/02/21 12:49:40;;;;;;;5.15;1.33;;;;;;;;;;5060221;28;20595;-84
2022/02/21 12:52:13;;;;;;;2.90;0.70;;;;;;;;;;5059827;28;20046;-83
2022/02/21 12:54:39;;;;;;;;;;;;;;;;;;5058879;28;20059;-83
2022/02/21 12:57:05;;;;;;;4.05;0.98;;;;;;;;;;5058942;28;19904;-84
2022/02/21 12:59:32;;;;;;;4.15;0.90;;;;;;;;;;5058670;28;20107;-83
2022/02/21 13:02:05;;;;;;;4.22;1.20;;;;;;;;;;5059794;28;20040;-82
2022/02/21 13:04:34;;;;;;;8.02;2.80;;;;;;;;;;5059998;28;20063;-83
2022/02/21 13:07:01;;;;;;;4.75;1.60;;;;;;;;;;5060297;28;20089;-84
2022/02/21 13:09:27;;;;;;;7.13;1.83;;;;;;;;;;5040971;28;20385;-83
2022/02/21 13:11:54;;;;;;;3.90;1.13;;;;;;;;;;5041902;28;20032;-84
2022/02/21 13:14:31;;;;;;;5.82;1.80;;;;;;;;;;5058939;28;20025;-83
2022/02/21 13:16:58;;;;;;;3.42;1.08;;;;;;;;;;5040349;28;20115;-84
2022/02/21 13:19:25;;;;;;;3.92;1.42;;;;;;;;;;5040275;28;20476;-84
2022/02/21 13:21:51;;;;;;;4.32;1.17;;;;;;;;;;5039750;28;20035;-85
2022/02/21 13:24:18;;;;;;;5.88;1.80;;;;;;;;;;5058822;28;20025;-83
2022/02/21 13:26:48;;;;;;;6.78;1.77;;;;;;;;;;5058173;28;20052;-86
2022/02/21 13:29:25;;;;;;;3.05;1.10;;;;;;;;;;5059295;28;20443;-84
2022/02/21 13:31:52;;;;;;;5.35;1.73;;;;;;;;;;5041137;28;20040;-85
2022/02/21 13:34:18;;;;;;;3.50;1.10;;;;;;;;;;5042453;28;20035;-85
2022/02/21 13:36:44;;;;;;;3.22;0.90;;;;;;;;;;5040765;28;20029;-85
2022/02/21 13:39:19;;;;;;;3.17;1.00;;;;;;;;;;5059607;28;20508;-86
2022/02/21 13:41:46;;;;;;;4.15;1.15;;;;;;;;;;5039927;28;20111;-84
2022/02/21 13:44:22;;;;;;;3.20;1.05;;;;;;;;;;5041659;28;20025;-82
2022/02/21 13:46:48;;;;;;;4.32;1.13;;;;;;;;;;5040799;28;20033;-85
2022/02/21 13:49:14;;;;;;;4.07;1.20;;;;;;;;;;5058501;28;20029;-86
2022/02/21 13:51:40;;;;;;;12.15;2.45;;;;;;;;;;5059230;28;20487;-82
2022/02/21 13:54:25;;;;;;;6.10;1.55;;;;;;;;;;5056807;28;20021;-84
2022/02/21 13:57:10;;;;;;;4.22;1.02;;;;;;;;;;5055460;28;20115;-85
2022/02/21 13:59:45;;;;;;;8.27;2.30;;;;;;;;;;5056188;28;20025;-84
2022/02/21 14:02:23;;;;;;;4.30;1.40;;;;;;;;;;5041535;28;20053;-84
2022/02/21 14:04:50;;;;;;;3.17;0.93;;;;;;;;;;5039158;28;20097;-84
2022/02/21 14:07:16;;;;;;;5.15;1.67;;;;;;;;;;5056519;28;20029;-84
2022/02/21 14:09:42;;;;;;;3.55;0.98;;;;;;;;;;5058468;28;20029;-84
2022/02/21 14:12:12;;;;;;;2.65;0.85;;;;;;;;;;5040653;28;20017;-82
2022/02/21 14:14:38;;;;;;;2.67;0.80;;;;;;;;;;5059247;28;20104;-83
2022/02/21 14:17:05;;;;;;;5.78;1.45;;;;;;;;;;5059097;28;20033;-84
2022/02/21 14:19:32;;;;;;;2.58;0.90;;;;;;;;;;5040095;28;20039;-84
2022/02/21 14:21:59;;;;;;;3.42;0.90;;;;;;;;;;5057857;28;20017;-85
2022/02/21 14:24:25;;;;;;;2.97;1.00;;;;;;;;;;5038960;28;20428;-84
2022/02/21 14:26:52;;;;;;;2.28;0.80;;;;;;;;;;5040556;28;20092;-86
2022/02/21 14:29:18;;;;;;;4.38;1.50;;;;;;;;;;5056217;28;20025;-87
2022/02/21 14:31:44;;;;;;;2.85;0.88;;;;;;;;;;5038927;28;20404;-84
2022/02/21 14:34:10;;;;;;;4.75;1.08;;;;;;;;;;5053130;28;20084;-87
2022/02/21 14:36:37;;;;;;;3.95;1.33;;;;;;;;;;5036501;28;20038;-86
2022/02/21 14:39:04;;;;;;;3.17;1.35;;;;;;;;;;5037952;28;20057;-84
2022/02/21 14:41:30;;;;;;;4.18;1.20;;;;;;;;;;5038523;28;20037;-84